Terminal Aerodrome Forecast
Issued by NWS Mt. Holly, NJ

Home | Current Version | Previous Version | Text Only | Print | Product List | Glossary On
Versions: 1 2 3 4 5 6 7 8 9 10 11 12 13 14 15 16 17 18 19 20 21
000
FTUS41 KPHI 021721
TAFTTN
TAF
KTTN 021721Z 0218/0318 16005KT P6SM FEW050
      TEMPO 0218/0220 6SM SHRA BKN050
     FM030000 VRB02KT P6SM SCT050 BKN150
     FM030900 VRB02KT 6SM BR BKN150=

USA.gov is the U.S. government's official web portal to all federal, state and local government web resources and services.